LEAM

Details ICAO LEAM (LEI)
Name Almeria
Region Spain
Timezone Unknown (UTC+0.0)
Plans Departing 135
Arriving 129
Stats Elevation 70 ft / 21 m (AMSL)
Location 36.843935° -2.370097°
Runways 1
Magnetic Variation 0.287° W
Sunrise 2017-12-15 07:16:28 UTC / 2017-12-15 07:16:28 Local
Sunset 2017-12-15 16:55:35 UTC / 2017-12-15 16:55:35 Local
Advertisement - Login to hide

Runways

ID Width Length Bearing (true) Bearing (mag) Surface Threshold Offset Overrun Length
08 148 ft / 45 m 10,484 ft / 3,196 m 72.94° 73.23° Asphalt 492 ft / 150 m 191 ft / 58 m
26 148 ft / 45 m 10,484 ft / 3,196 m 252.96° 253.25° Asphalt 0 ft / 0 m 150 ft / 46 m

Approach Navaids

Runway Type Ident Frequency Range Bearing (true) Bearing (mag) Slope Elevation
26 Localiser IAM 109.90 MHz 18 nm / 33 km 252.94° 253.23° - 70 ft / 21 m (AMSL)
26 Glidescope IAM 109.90 MHz 10 nm / 19 km 252.95° 253.24° 3.00° 70 ft / 21 m (AMSL)
26 DME IAM 109.90 MHz 18 nm / 33 km - - - 95 ft / 29 m (AMSL)

Map

Weather


0- 5 10 15 20 25 30 35+ Temperature / ° C

Clouds and Precipitation
Forecast for 2017-12-15 06:00 UTC. Updated 2 hours ago

Ground ~20,000 ft ~40,000 ft Winds

METAR

LEAM 150300Z AUTO 02002KT CAVOK 11/08 Q1014

TAF

TAF LEAM 150200Z 1503/1603 VRB03KT 9999 FEW045 TX18/1513Z TN09/1507Z

Frequencies

Ground 121.70 MHz GND
Approach 118.35 MHz APP
Tower 118.35 MHz TWR
Warning: Do not use this data for real-world aviation or navigation. No guarantee of current accuracy is given.